createdAt,value
2023-05-18T00:02:30.142Z,101425
2023-05-18T00:08:20.270Z,101427
2023-05-18T00:14:11.023Z,101426
2023-05-18T00:20:02.845Z,101424
2023-05-18T00:25:55.260Z,101420
2023-05-18T00:31:49.757Z,101430
2023-05-18T00:37:42.249Z,101431
2023-05-18T00:43:34.605Z,101430
2023-05-18T00:49:26.827Z,101422
2023-05-18T00:55:18.160Z,101422
2023-05-18T01:01:09.910Z,101423
2023-05-18T01:07:03.924Z,101428
2023-05-18T01:12:57.059Z,101427
2023-05-18T01:18:49.509Z,101418
2023-05-18T01:24:42.722Z,101426
2023-05-18T01:30:35.816Z,101422
2023-05-18T01:36:28.681Z,101423
2023-05-18T01:42:21.179Z,101428
2023-05-18T01:48:14.684Z,101421
2023-05-18T01:54:06.574Z,101426
2023-05-18T02:00:00.720Z,101424
2023-05-18T02:05:52.484Z,101424
2023-05-18T02:11:44.417Z,101423
2023-05-18T02:17:36.273Z,101420
2023-05-18T02:23:29.068Z,101425
2023-05-18T02:29:21.168Z,101425
2023-05-18T02:35:14.122Z,101429
2023-05-18T02:41:07.772Z,101427
2023-05-18T02:47:01.586Z,101424
2023-05-18T02:52:53.360Z,101430
2023-05-18T02:58:44.697Z,101430
2023-05-18T03:04:37.979Z,101432
2023-05-18T03:10:29.660Z,101430
2023-05-18T03:16:21.768Z,101436
2023-05-18T03:22:14.690Z,101435
2023-05-18T03:28:07.596Z,101439
2023-05-18T03:33:59.557Z,101442
2023-05-18T03:39:52.103Z,101442
2023-05-18T03:45:44.595Z,101444
2023-05-18T03:51:37.817Z,101450
2023-05-18T03:57:32.554Z,101454
2023-05-18T04:03:24.649Z,101454
2023-05-18T04:09:17.353Z,101447
2023-05-18T04:15:10.144Z,101453
2023-05-18T04:21:02.410Z,101455
2023-05-18T04:26:54.299Z,101456
2023-05-18T04:32:46.919Z,101456
2023-05-18T04:38:38.885Z,101462
2023-05-18T04:44:30.878Z,101457
2023-05-18T04:50:24.063Z,101457
2023-05-18T04:56:16.503Z,101457
2023-05-18T05:02:08.438Z,101464
2023-05-18T05:08:00.884Z,101462
2023-05-18T05:13:53.434Z,101470
2023-05-18T05:19:45.547Z,101467
2023-05-18T05:25:37.696Z,101472
2023-05-18T05:31:29.640Z,101477
2023-05-18T05:37:22.199Z,101476
2023-05-18T05:43:15.277Z,101476
2023-05-18T05:49:10.162Z,101476
2023-05-18T05:55:03.826Z,101483
2023-05-18T06:00:56.704Z,101478
2023-05-18T06:06:49.738Z,101493
2023-05-18T06:12:42.106Z,101492
2023-05-18T06:18:35.119Z,101485
2023-05-18T06:24:23.643Z,101493
2023-05-18T06:30:15.113Z,101502
2023-05-18T06:36:09.379Z,101513
2023-05-18T06:42:03.215Z,101514
2023-05-18T06:47:56.440Z,101512
2023-05-18T06:53:48.716Z,101507
2023-05-18T06:59:40.671Z,101504
2023-05-18T07:05:35.164Z,101512
2023-05-18T07:11:32.425Z,101509
2023-05-18T07:17:25.038Z,101500
2023-05-18T07:23:18.315Z,101497
2023-05-18T07:29:10.621Z,101505
2023-05-18T07:35:02.581Z,101499
2023-05-18T07:41:05.103Z,101487
2023-05-18T07:46:55.557Z,101493
2023-05-18T07:52:48.382Z,101490
2023-05-18T07:58:40.376Z,101489
2023-05-18T08:04:34.331Z,101473
2023-05-18T08:10:26.921Z,101479
2023-05-18T08:16:20.364Z,101473
2023-05-18T08:23:21.481Z,101468
2023-05-18T08:29:13.464Z,101459
2023-05-18T08:35:06.739Z,101457
2023-05-18T08:40:59.101Z,101450
2023-05-18T08:46:56.182Z,101452
2023-05-18T08:52:47.671Z,101444
2023-05-18T08:58:39.828Z,101443
2023-05-18T09:04:33.001Z,101455
2023-05-18T09:10:25.495Z,101440
2023-05-18T09:16:18.153Z,101444
2023-05-18T09:22:10.535Z,101443
2023-05-18T09:28:02.851Z,101433
2023-05-18T09:33:55.455Z,101434
2023-05-18T09:39:47.648Z,101433
2023-05-18T09:45:39.416Z,101436
2023-05-18T09:51:31.834Z,101424
2023-05-18T09:57:24.046Z,101409
2023-05-18T10:03:15.677Z,101405
2023-05-18T10:10:12.932Z,101405
2023-05-18T10:16:03.778Z,101405
2023-05-18T10:21:55.682Z,101396
2023-05-18T10:27:47.652Z,101395
2023-05-18T10:33:40.085Z,101386
2023-05-18T10:39:31.593Z,101383
2023-05-18T10:45:23.769Z,101384
2023-05-18T10:51:15.578Z,101370
2023-05-18T10:57:08.604Z,101379
2023-05-18T11:03:00.423Z,101364
2023-05-18T11:08:52.784Z,101365
2023-05-18T11:14:42.786Z,101354
2023-05-18T11:20:35.361Z,101339
2023-05-18T11:26:26.742Z,101348
2023-05-18T11:32:32.068Z,101347
2023-05-18T11:38:23.262Z,101339
2023-05-18T11:44:16.179Z,101338
2023-05-18T11:50:08.632Z,101319
2023-05-18T11:56:01.487Z,101319
2023-05-18T12:01:54.407Z,101307
2023-05-18T12:07:45.821Z,101295
2023-05-18T12:13:37.381Z,101303
2023-05-18T12:19:27.854Z,101292
2023-05-18T12:25:20.233Z,101281
2023-05-18T12:31:12.515Z,101279
2023-05-18T12:37:04.369Z,101272
2023-05-18T12:42:56.712Z,101270
2023-05-18T12:48:48.760Z,101271
2023-05-18T12:54:40.746Z,101257
2023-05-18T13:00:32.978Z,101245
2023-05-18T13:06:25.101Z,101253
2023-05-18T13:12:19.676Z,101244
2023-05-18T13:18:11.893Z,101244
2023-05-18T13:24:03.759Z,101238
2023-05-18T13:29:56.136Z,101241
2023-05-18T13:35:48.640Z,101224
2023-05-18T13:41:41.360Z,101213
2023-05-18T13:47:33.356Z,101223
2023-05-18T13:53:25.712Z,101215
2023-05-18T13:59:17.666Z,101212
2023-05-18T14:05:10.482Z,101195
2023-05-18T14:11:03.979Z,101201
2023-05-18T14:16:56.958Z,101184
2023-05-18T14:22:50.626Z,101179
2023-05-18T14:28:43.483Z,101165
2023-05-18T14:34:34.472Z,101165
2023-05-18T14:40:27.779Z,101157
2023-05-18T14:46:21.500Z,101167
2023-05-18T14:52:16.482Z,101164
2023-05-18T14:58:08.576Z,101148
2023-05-18T15:04:05.099Z,101145
2023-05-18T15:09:57.574Z,101155
2023-05-18T15:15:49.709Z,101150
2023-05-18T15:21:41.718Z,101134
2023-05-18T15:27:33.741Z,101143
2023-05-18T15:33:26.007Z,101138
2023-05-18T15:39:18.044Z,101130
2023-05-18T15:45:10.902Z,101129
2023-05-18T15:51:03.187Z,101116
2023-05-18T15:56:55.412Z,101113
2023-05-18T16:02:48.048Z,101110
2023-05-18T16:08:40.605Z,101109
2023-05-18T16:14:33.042Z,101110
2023-05-18T16:20:24.878Z,101100
2023-05-18T16:26:17.486Z,101115
2023-05-18T16:32:09.525Z,101107
2023-05-18T16:38:02.226Z,101112
2023-05-18T16:43:54.695Z,101108
2023-05-18T16:50:56.400Z,101103
2023-05-18T16:56:50.304Z,101107
2023-05-18T17:02:42.349Z,101100
2023-05-18T17:08:32.786Z,101108
2023-05-18T17:14:25.806Z,101112
2023-05-18T17:20:19.871Z,101098
2023-05-18T17:26:13.326Z,101099
2023-05-18T17:32:06.692Z,101098
2023-05-18T17:37:58.583Z,101090
2023-05-18T17:43:51.818Z,101089
2023-05-18T17:49:45.796Z,101084
2023-05-18T17:55:36.626Z,101088
2023-05-18T18:01:30.905Z,101093
2023-05-18T18:07:22.543Z,101108
2023-05-18T18:13:15.042Z,101095
2023-05-18T18:19:06.542Z,101102
2023-05-18T18:25:00.381Z,101109
2023-05-18T18:30:52.295Z,101106
2023-05-18T18:36:45.693Z,101111
2023-05-18T18:42:38.864Z,101117
2023-05-18T18:48:32.215Z,101115
2023-05-18T18:54:25.849Z,101117
2023-05-18T19:00:18.836Z,101125
2023-05-18T19:06:11.361Z,101134
2023-05-18T19:12:04.484Z,101149
2023-05-18T19:17:58.233Z,101161
2023-05-18T19:23:49.375Z,101158
2023-05-18T19:29:41.228Z,101167
2023-05-18T19:35:33.768Z,101177
2023-05-18T19:41:28.674Z,101192
2023-05-18T19:47:21.826Z,101194
2023-05-18T19:53:16.062Z,101192
2023-05-18T19:59:07.777Z,101207
2023-05-18T20:05:01.346Z,101207
2023-05-18T20:10:54.299Z,101223
2023-05-18T20:16:48.278Z,101235
2023-05-18T20:22:41.261Z,101241
2023-05-18T20:28:34.377Z,101248
2023-05-18T20:34:26.452Z,101259
2023-05-18T20:40:22.618Z,101266
2023-05-18T20:46:15.977Z,101263
2023-05-18T20:52:09.678Z,101266
2023-05-18T20:58:02.019Z,101272
2023-05-18T21:03:55.275Z,101274
2023-05-18T21:09:48.017Z,101281
2023-05-18T21:15:42.096Z,101293
2023-05-18T21:21:33.292Z,101293
2023-05-18T21:27:24.684Z,101293
2023-05-18T21:33:17.172Z,101293
2023-05-18T21:39:08.870Z,101287
2023-05-18T21:45:02.081Z,101285
2023-05-18T21:50:54.463Z,101294
2023-05-18T21:56:46.496Z,101288
2023-05-18T22:02:37.726Z,101279
2023-05-18T22:08:29.873Z,101288
2023-05-18T22:14:22.276Z,101294
2023-05-18T22:20:20.572Z,101294
2023-05-18T22:26:14.023Z,101291
2023-05-18T22:32:06.126Z,101283
2023-05-18T22:37:57.926Z,101289
2023-05-18T22:43:50.492Z,101289
2023-05-18T22:49:42.074Z,101286
2023-05-18T22:55:33.851Z,101291
2023-05-18T23:01:25.737Z,101278
2023-05-18T23:07:16.840Z,101277
2023-05-18T23:13:08.916Z,101290
2023-05-18T23:19:01.577Z,101297
2023-05-18T23:24:53.379Z,101292
2023-05-18T23:30:45.502Z,101287
2023-05-18T23:36:37.852Z,101291
2023-05-18T23:42:27.623Z,101295
2023-05-18T23:48:19.423Z,101295
2023-05-18T23:54:11.107Z,101295
